createdAt,value
2022-08-17T00:01:52.361Z,20.17
2022-08-17T00:04:20.363Z,18.13
2022-08-17T00:06:49.131Z,19.13
2022-08-17T00:09:18.433Z,20.40
2022-08-17T00:12:40.724Z,16.50
2022-08-17T00:14:33.885Z,19.05
2022-08-17T00:17:00.980Z,19.40
2022-08-17T00:19:28.029Z,22.65
2022-08-17T00:22:32.891Z,17.58
2022-08-17T00:24:44.803Z,17.23
2022-08-17T00:27:11.911Z,16.80
2022-08-17T00:29:38.954Z,16.85
2022-08-17T00:33:14.905Z,18.48
2022-08-17T00:34:53.583Z,18.27
2022-08-17T00:37:20.695Z,19.80
2022-08-17T00:39:47.861Z,17.50
2022-08-17T00:42:18.890Z,19.85
2022-08-17T00:44:46.065Z,18.40
2022-08-17T00:47:13.133Z,17.90
2022-08-17T00:49:40.265Z,16.98
2022-08-17T00:52:15.345Z,16.73
2022-08-17T00:54:44.051Z,18.45
2022-08-17T00:57:17.061Z,17.25
2022-08-17T01:00:02.550Z,18.45
2022-08-17T01:02:41.217Z,18.83
2022-08-17T01:05:11.308Z,18.65
2022-08-17T01:07:38.752Z,20.25
2022-08-17T01:10:07.269Z,16.85
2022-08-17T01:12:54.769Z,19.20
2022-08-17T01:15:21.885Z,18.48
2022-08-17T01:17:49.006Z,19.48
2022-08-17T01:20:16.815Z,23.25
2022-08-17T01:22:43.931Z,19.50
2022-08-17T01:25:12.526Z,20.17
2022-08-17T01:27:39.660Z,20.60
2022-08-17T01:30:56.978Z,21.20
2022-08-17T01:32:56.203Z,22.38
2022-08-17T01:35:23.292Z,18.17
2022-08-17T01:37:53.467Z,18.30
2022-08-17T01:40:26.492Z,18.00
2022-08-17T01:43:02.331Z,18.45
2022-08-17T01:45:33.795Z,17.92
2022-08-17T01:48:01.360Z,22.27
2022-08-17T01:50:30.064Z,21.55
2022-08-17T01:53:02.717Z,17.73
2022-08-17T01:55:32.828Z,19.13
2022-08-17T01:58:00.231Z,20.15
2022-08-17T02:00:59.773Z,22.10
2022-08-17T02:03:17.136Z,21.40
2022-08-17T02:05:44.440Z,23.25
2022-08-17T02:08:19.915Z,20.15
2022-08-17T02:10:48.223Z,19.85
2022-08-17T02:13:15.948Z,17.85
2022-08-17T02:15:43.073Z,16.83
2022-08-17T02:18:11.054Z,17.48
2022-08-17T02:20:41.507Z,21.67
2022-08-17T02:23:09.829Z,19.70
2022-08-17T02:25:37.321Z,17.63
2022-08-17T02:28:04.926Z,16.95
2022-08-17T02:31:00.310Z,15.38
2022-08-17T02:33:20.360Z,17.25
2022-08-17T02:35:47.583Z,17.10
2022-08-17T02:38:15.151Z,19.45
2022-08-17T02:40:42.185Z,18.50
2022-08-17T02:43:13.667Z,19.33
2022-08-17T02:45:40.766Z,17.05
2022-08-17T02:48:07.901Z,22.63
2022-08-17T02:50:35.001Z,18.27
2022-08-17T02:53:02.922Z,20.42
2022-08-17T02:55:36.240Z,18.73
2022-08-17T02:58:03.710Z,20.45
2022-08-17T03:00:35.803Z,20.80
2022-08-17T03:03:05.985Z,20.23
2022-08-17T03:05:34.793Z,18.10
2022-08-17T03:08:02.085Z,19.08
2022-08-17T03:10:29.720Z,17.65
2022-08-17T03:12:56.786Z,19.65
2022-08-17T03:15:28.556Z,16.58
2022-08-17T03:17:56.639Z,17.33
2022-08-17T03:20:24.737Z,17.65
2022-08-17T03:22:53.819Z,16.17
2022-08-17T03:25:25.645Z,18.67
2022-08-17T03:27:52.857Z,19.67
2022-08-17T03:30:22.343Z,19.50
2022-08-17T03:32:50.574Z,22.02
2022-08-17T03:35:19.443Z,17.40
2022-08-17T03:37:46.515Z,17.75
2022-08-17T03:40:18.534Z,18.00
2022-08-17T03:43:09.077Z,22.38
2022-08-17T03:45:55.289Z,22.23
2022-08-17T03:48:42.574Z,20.42
2022-08-17T03:51:33.532Z,19.45
2022-08-17T03:54:19.553Z,19.77
2022-08-17T03:56:49.638Z,21.52
2022-08-17T03:59:21.041Z,21.85
2022-08-17T04:01:52.252Z,23.88
2022-08-17T04:04:27.398Z,23.65
2022-08-17T04:06:54.978Z,20.48
2022-08-17T04:09:22.046Z,22.90
2022-08-17T04:11:49.138Z,20.95
2022-08-17T04:14:16.189Z,15.80
2022-08-17T04:16:43.355Z,16.02
2022-08-17T04:19:10.447Z,18.55
2022-08-17T04:21:37.560Z,15.93
2022-08-17T04:24:05.043Z,18.65
2022-08-17T04:26:53.770Z,15.77
2022-08-17T04:29:19.403Z,18.92
2022-08-17T04:31:46.495Z,14.65
2022-08-17T04:34:13.543Z,12.77
2022-08-17T04:36:40.630Z,13.07
2022-08-17T04:39:17.440Z,13.95
2022-08-17T04:42:02.949Z,13.00
2022-08-17T04:44:37.040Z,19.20
2022-08-17T04:47:05.280Z,17.75
2022-08-17T04:49:32.545Z,10.65
2022-08-17T04:52:04.347Z,13.23
2022-08-17T04:54:31.720Z,10.52
2022-08-17T04:56:58.797Z,12.68
2022-08-17T04:59:25.987Z,13.40
2022-08-17T05:01:53.070Z,10.95
2022-08-17T05:04:33.990Z,11.45
2022-08-17T05:07:02.427Z,13.40
2022-08-17T05:09:29.533Z,14.63
2022-08-17T05:11:56.599Z,13.10
2022-08-17T05:14:33.097Z,12.63
2022-08-17T05:17:01.131Z,19.88
2022-08-17T05:19:28.775Z,8.98
2022-08-17T05:21:55.838Z,17.38
2022-08-17T05:24:40.696Z,14.65
2022-08-17T05:27:10.012Z,16.75
2022-08-17T05:29:42.161Z,14.57
2022-08-17T05:32:38.642Z,14.48
2022-08-17T05:35:00.751Z,17.25
2022-08-17T05:37:27.972Z,15.98
2022-08-17T05:39:55.138Z,15.15
2022-08-17T05:42:22.701Z,14.68
2022-08-17T05:44:49.799Z,17.83
2022-08-17T05:47:18.254Z,15.52
2022-08-17T05:49:45.426Z,16.73
2022-08-17T05:52:35.122Z,15.18
2022-08-17T05:55:02.212Z,16.35
2022-08-17T05:57:54.205Z,15.63
2022-08-17T06:00:31.192Z,16.02
2022-08-17T06:03:16.125Z,17.38
2022-08-17T06:05:55.500Z,18.58
2022-08-17T06:08:37.730Z,19.38
2022-08-17T06:11:27.046Z,16.67
2022-08-17T06:14:07.292Z,21.15
2022-08-17T06:16:41.049Z,24.48
2022-08-17T06:19:40.704Z,16.52
2022-08-17T06:22:08.733Z,17.58
2022-08-17T06:24:41.949Z,19.63
2022-08-17T06:27:30.250Z,15.88
2022-08-17T06:29:57.338Z,21.02
2022-08-17T06:32:25.046Z,17.80
2022-08-17T06:34:52.228Z,18.58
2022-08-17T06:37:19.264Z,17.20
2022-08-17T06:40:05.892Z,17.80
2022-08-17T06:42:54.995Z,20.25
2022-08-17T06:45:39.604Z,16.85
2022-08-17T06:48:13.549Z,16.45
2022-08-17T06:50:44.816Z,20.40
2022-08-17T06:53:23.069Z,17.90
2022-08-17T06:56:02.977Z,18.58
2022-08-17T06:58:33.278Z,20.95
2022-08-17T07:01:07.238Z,16.52
2022-08-17T07:03:37.518Z,19.05
2022-08-17T07:06:19.099Z,16.67
2022-08-17T07:09:03.563Z,18.13
2022-08-17T07:11:32.702Z,19.48
2022-08-17T07:14:04.427Z,21.10
2022-08-17T07:16:43.937Z,21.33
2022-08-17T07:19:11.882Z,23.95
2022-08-17T07:21:51.609Z,21.45
2022-08-17T07:24:33.473Z,20.23
2022-08-17T07:27:20.768Z,23.55
2022-08-17T07:29:53.795Z,22.30
2022-08-17T07:32:23.684Z,21.23
2022-08-17T07:35:11.645Z,19.88
2022-08-17T07:37:43.172Z,29.42
2022-08-17T07:40:18.925Z,26.83
2022-08-17T07:43:01.110Z,24.05
2022-08-17T07:45:49.797Z,25.20
2022-08-17T07:48:20.133Z,28.30
2022-08-17T07:50:49.561Z,26.33
2022-08-17T07:53:23.190Z,30.40
2022-08-17T07:55:50.873Z,26.48
2022-08-17T07:58:19.197Z,30.08
2022-08-17T08:00:46.918Z,31.92
2022-08-17T08:03:17.269Z,28.13
2022-08-17T08:05:51.087Z,27.88
2022-08-17T08:08:33.531Z,31.48
2022-08-17T08:11:08.473Z,31.48
2022-08-17T08:13:42.218Z,32.67
2022-08-17T08:16:19.864Z,32.33
2022-08-17T08:18:54.044Z,30.50
2022-08-17T08:21:32.180Z,30.63
2022-08-17T08:24:22.654Z,35.90
2022-08-17T08:27:19.469Z,35.85
2022-08-17T08:29:55.501Z,35.42
2022-08-17T08:32:28.490Z,32.85
2022-08-17T08:35:01.643Z,32.35
2022-08-17T08:37:53.275Z,41.20
2022-08-17T08:40:20.478Z,52.80
2022-08-17T08:42:53.225Z,40.50
2022-08-17T08:45:26.593Z,35.70
2022-08-17T08:48:12.764Z,35.25
2022-08-17T08:51:18.359Z,36.22
2022-08-17T08:53:51.827Z,33.78
2022-08-17T08:56:28.051Z,34.65
2022-08-17T08:59:01.242Z,33.25
2022-08-17T09:01:40.835Z,32.80
2022-08-17T09:05:10.596Z,35.22
2022-08-17T09:07:37.456Z,33.47
2022-08-17T09:10:04.992Z,33.38
2022-08-17T09:12:50.941Z,31.40
2022-08-17T09:15:34.794Z,32.42
2022-08-17T09:19:00.877Z,37.75
2022-08-17T09:20:58.116Z,32.78
2022-08-17T09:23:33.062Z,36.67
2022-08-17T09:26:06.087Z,34.63
2022-08-17T09:28:37.342Z,28.92
2022-08-17T09:31:08.408Z,28.77
2022-08-17T09:33:37.741Z,27.27
2022-08-17T09:36:21.685Z,24.15
2022-08-17T09:38:48.762Z,29.85
2022-08-17T09:41:15.878Z,28.50
2022-08-17T09:43:59.314Z,20.35
2022-08-17T09:46:30.663Z,27.15
2022-08-17T09:49:09.731Z,30.50
2022-08-17T09:51:40.491Z,26.05
2022-08-17T09:54:37.441Z,28.73
2022-08-17T09:57:29.072Z,29.23
2022-08-17T10:00:28.618Z,29.10
2022-08-17T10:03:20.641Z,30.33
2022-08-17T10:05:47.696Z,32.95
2022-08-17T10:08:22.912Z,34.88
2022-08-17T10:11:08.271Z,31.35
2022-08-17T10:13:41.411Z,28.23
2022-08-17T10:16:20.482Z,28.92
2022-08-17T10:18:56.476Z,27.00
2022-08-17T10:21:43.106Z,25.50
2022-08-17T10:24:32.468Z,27.90
2022-08-17T10:27:01.293Z,25.80
2022-08-17T10:29:54.547Z,30.42
2022-08-17T10:32:33.401Z,24.83
2022-08-17T10:35:11.326Z,19.50
2022-08-17T10:37:46.578Z,24.80
2022-08-17T10:40:23.418Z,29.10
2022-08-17T10:43:03.254Z,23.40
2022-08-17T10:45:35.791Z,26.58
2022-08-17T10:48:09.976Z,27.85
2022-08-17T10:50:40.078Z,32.95
2022-08-17T10:53:07.146Z,23.20
2022-08-17T10:55:34.248Z,23.38
2022-08-17T10:58:20.857Z,24.77
2022-08-17T11:00:56.173Z,27.88
2022-08-17T11:03:24.663Z,23.20
2022-08-17T11:05:58.224Z,29.67
2022-08-17T11:08:25.246Z,23.95
2022-08-17T11:11:12.954Z,26.25
2022-08-17T11:14:00.256Z,25.42
2022-08-17T11:16:27.330Z,26.33
2022-08-17T11:19:13.175Z,26.45
2022-08-17T11:21:59.036Z,24.40
2022-08-17T11:24:34.884Z,26.27
2022-08-17T11:27:04.377Z,24.88
2022-08-17T11:29:36.272Z,23.85
2022-08-17T11:32:13.206Z,27.88
2022-08-17T11:34:44.504Z,27.50
2022-08-17T11:37:31.890Z,29.05
2022-08-17T11:40:24.378Z,24.63
2022-08-17T11:42:57.583Z,29.55
2022-08-17T11:45:43.497Z,29.92
2022-08-17T11:48:48.987Z,28.85
2022-08-17T11:51:34.394Z,27.38
2022-08-17T11:54:32.335Z,28.95
2022-08-17T11:57:02.328Z,32.60
2022-08-17T11:59:43.668Z,31.17
2022-08-17T12:02:32.571Z,28.73
2022-08-17T12:05:02.996Z,30.67
2022-08-17T12:07:32.573Z,29.15
2022-08-17T12:10:00.380Z,34.20
2022-08-17T12:12:35.792Z,33.53
2022-08-17T12:15:12.540Z,32.35
2022-08-17T12:17:52.435Z,30.52
2022-08-17T12:20:21.377Z,34.35
2022-08-17T12:22:56.274Z,38.10
2022-08-17T12:25:36.627Z,34.08
2022-08-17T12:28:06.540Z,37.13
2022-08-17T12:30:35.959Z,42.75
2022-08-17T12:33:05.137Z,38.30
2022-08-17T12:35:35.084Z,43.00
2022-08-17T12:38:03.211Z,42.63
2022-08-17T12:40:31.528Z,43.00
2022-08-17T12:43:02.559Z,40.85
2022-08-17T12:45:31.152Z,42.78
2022-08-17T12:48:04.070Z,40.55
2022-08-17T12:50:32.096Z,43.55
2022-08-17T12:53:02.337Z,42.42
2022-08-17T12:55:32.569Z,41.10
2022-08-17T12:58:01.945Z,44.38
2022-08-17T13:00:33.682Z,43.63
2022-08-17T13:03:00.740Z,45.22
2022-08-17T13:05:29.563Z,41.33
2022-08-17T13:07:58.328Z,41.88
2022-08-17T13:10:32.743Z,40.63
2022-08-17T13:13:04.914Z,40.75
2022-08-17T13:15:44.433Z,43.08
2022-08-17T13:18:32.032Z,42.17
2022-08-17T13:20:59.861Z,42.72
2022-08-17T13:23:29.140Z,41.72
2022-08-17T13:25:58.374Z,41.03
2022-08-17T13:28:35.649Z,40.33
2022-08-17T13:31:22.079Z,43.97
2022-08-17T13:33:50.060Z,38.28
2022-08-17T13:36:32.712Z,36.58
2022-08-17T13:39:18.741Z,42.90
2022-08-17T13:41:46.115Z,40.50
2022-08-17T13:44:33.164Z,37.05
2022-08-17T13:47:00.957Z,39.88
2022-08-17T13:49:41.867Z,35.20
2022-08-17T13:52:34.952Z,35.60
2022-08-17T13:55:09.809Z,38.92
2022-08-17T13:57:37.213Z,42.30
2022-08-17T14:00:30.530Z,37.08
2022-08-17T14:03:01.733Z,38.25
2022-08-17T14:05:30.554Z,39.60
2022-08-17T14:08:02.422Z,40.25
2022-08-17T14:10:36.370Z,40.70
2022-08-17T14:13:03.591Z,38.28
2022-08-17T14:15:56.330Z,42.50
2022-08-17T14:18:55.475Z,41.88
2022-08-17T14:21:08.260Z,40.38
2022-08-17T14:23:37.361Z,40.15
2022-08-17T14:26:05.214Z,40.92
2022-08-17T14:28:32.325Z,40.38
2022-08-17T14:31:00.650Z,38.17
2022-08-17T14:33:28.422Z,41.35
2022-08-17T14:35:55.837Z,38.75
2022-08-17T14:38:23.333Z,40.75
2022-08-17T14:40:50.521Z,36.88
2022-08-17T14:43:18.388Z,39.35
2022-08-17T14:45:45.535Z,36.03
2022-08-17T14:48:12.611Z,45.90
2022-08-17T14:50:40.996Z,38.17
2022-08-17T14:53:09.858Z,34.72
2022-08-17T14:55:39.709Z,37.28
2022-08-17T14:58:07.495Z,32.92
2022-08-17T15:00:34.649Z,32.15
2022-08-17T15:03:02.133Z,32.97
2022-08-17T15:05:31.470Z,29.65
2022-08-17T15:07:59.073Z,32.60
2022-08-17T15:10:26.178Z,30.05
2022-08-17T15:12:53.307Z,27.65
2022-08-17T15:15:20.688Z,23.45
2022-08-17T15:17:47.753Z,22.77
2022-08-17T15:20:16.977Z,26.88
2022-08-17T15:22:44.962Z,25.88
2022-08-17T15:25:12.494Z,26.92
2022-08-17T15:27:40.209Z,26.30
2022-08-17T15:30:07.546Z,24.23
2022-08-17T15:32:36.007Z,25.05
2022-08-17T15:35:04.187Z,28.33
2022-08-17T15:37:32.063Z,25.55
2022-08-17T15:40:01.963Z,22.83
2022-08-17T15:42:29.326Z,21.33
2022-08-17T15:44:56.459Z,23.23
2022-08-17T15:47:23.964Z,22.20
2022-08-17T15:49:52.775Z,21.77
2022-08-17T15:52:23.457Z,25.15
2022-08-17T15:54:54.786Z,23.55
2022-08-17T15:57:23.920Z,29.23
2022-08-17T15:59:52.097Z,23.95
2022-08-17T16:03:13.775Z,25.70
2022-08-17T16:05:17.478Z,20.10
2022-08-17T16:07:50.290Z,19.00
2022-08-17T16:10:19.273Z,18.30
2022-08-17T16:12:47.414Z,19.30
2022-08-17T16:15:14.804Z,20.42
2022-08-17T16:17:42.109Z,18.48
2022-08-17T16:20:10.008Z,19.42
2022-08-17T16:22:47.893Z,19.15
2022-08-17T16:25:17.922Z,16.88
2022-08-17T16:27:45.090Z,18.40
2022-08-17T16:30:17.078Z,16.02
2022-08-17T16:32:44.967Z,17.85
2022-08-17T16:35:17.277Z,17.42
2022-08-17T16:37:45.501Z,19.35
2022-08-17T16:40:13.579Z,18.75
2022-08-17T16:42:41.066Z,19.08
2022-08-17T16:45:10.054Z,19.38
2022-08-17T16:47:37.766Z,19.00
2022-08-17T16:50:06.331Z,20.98
2022-08-17T16:52:33.843Z,18.55
2022-08-17T16:55:02.062Z,16.98
2022-08-17T16:57:30.010Z,17.25
2022-08-17T16:59:57.261Z,17.98
2022-08-17T17:02:36.268Z,18.85
2022-08-17T17:05:03.546Z,17.50
2022-08-17T17:07:33.845Z,18.58
2022-08-17T17:10:15.046Z,18.02
2022-08-17T17:13:03.014Z,17.67
2022-08-17T17:15:37.163Z,16.50
2022-08-17T17:18:07.217Z,17.45
2022-08-17T17:20:43.609Z,17.30
2022-08-17T17:23:19.403Z,16.15
2022-08-17T17:25:55.683Z,15.70
2022-08-17T17:28:30.827Z,16.38
2022-08-17T17:31:11.296Z,16.65
2022-08-17T17:33:40.229Z,16.60
2022-08-17T17:36:25.826Z,16.38
2022-08-17T17:38:55.160Z,17.38
2022-08-17T17:41:34.466Z,16.48
2022-08-17T17:44:12.053Z,17.80
2022-08-17T17:46:41.307Z,19.17
2022-08-17T17:49:11.132Z,15.05
2022-08-17T17:52:06.625Z,21.30
2022-08-17T17:54:38.390Z,16.55
2022-08-17T17:57:11.682Z,16.20
2022-08-17T17:59:44.609Z,17.23
2022-08-17T18:02:51.937Z,18.92
2022-08-17T18:05:22.633Z,20.25
2022-08-17T18:07:56.174Z,19.13
2022-08-17T18:10:30.187Z,18.50
2022-08-17T18:13:16.767Z,20.77
2022-08-17T18:15:51.180Z,20.13
2022-08-17T18:18:18.317Z,23.10
2022-08-17T18:20:53.861Z,25.73
2022-08-17T18:23:28.205Z,19.98
2022-08-17T18:25:55.970Z,21.50
2022-08-17T18:28:32.081Z,20.42
2022-08-17T18:31:05.198Z,23.83
2022-08-17T18:33:33.924Z,23.73
2022-08-17T18:36:01.550Z,19.92
2022-08-17T18:38:33.841Z,21.27
2022-08-17T18:41:07.395Z,21.10
2022-08-17T18:43:44.036Z,23.17
2022-08-17T18:46:28.219Z,23.58
2022-08-17T18:48:59.070Z,22.13
2022-08-17T18:51:40.629Z,22.88
2022-08-17T18:54:23.218Z,22.25
2022-08-17T18:56:56.351Z,24.38
2022-08-17T18:59:35.397Z,23.88
2022-08-17T19:02:23.241Z,23.63
2022-08-17T19:05:14.636Z,25.15
2022-08-17T19:07:43.287Z,25.50
2022-08-17T19:10:28.886Z,25.27
2022-08-17T19:13:00.233Z,26.50
2022-08-17T19:15:35.650Z,25.63
2022-08-17T19:18:15.562Z,25.27
2022-08-17T19:20:46.206Z,27.88
2022-08-17T19:23:33.101Z,28.05
2022-08-17T19:26:02.374Z,25.48
2022-08-17T19:28:37.423Z,26.45
2022-08-17T19:31:09.659Z,24.05
2022-08-17T19:33:37.511Z,24.23
2022-08-17T19:36:10.473Z,24.55
2022-08-17T19:38:49.877Z,25.58
2022-08-17T19:41:19.791Z,24.88
2022-08-17T19:44:01.243Z,27.70
2022-08-17T19:46:49.837Z,25.58
2022-08-17T19:49:32.879Z,24.67
2022-08-17T19:52:17.614Z,26.02
2022-08-17T19:54:55.217Z,25.73
2022-08-17T19:57:30.110Z,27.80
2022-08-17T19:59:57.176Z,25.15
2022-08-17T20:02:37.782Z,24.40
2022-08-17T20:05:08.453Z,25.67
2022-08-17T20:07:50.190Z,29.52
2022-08-17T20:10:29.344Z,25.88
2022-08-17T20:12:59.624Z,25.58
2022-08-17T20:15:29.718Z,26.77
2022-08-17T20:17:59.465Z,27.42
2022-08-17T20:20:34.252Z,30.85
2022-08-17T20:23:19.857Z,25.92
2022-08-17T20:25:49.554Z,26.45
2022-08-17T20:28:19.372Z,28.45
2022-08-17T20:30:46.548Z,30.27
2022-08-17T20:33:39.581Z,30.63
2022-08-17T20:36:12.765Z,31.80
2022-08-17T20:38:41.999Z,31.13
2022-08-17T20:41:20.832Z,32.00
2022-08-17T20:43:59.020Z,34.53
2022-08-17T20:46:28.940Z,31.10
2022-08-17T20:49:00.516Z,32.65
2022-08-17T20:51:32.496Z,34.28
2022-08-17T20:54:01.703Z,36.63
2022-08-17T20:56:44.250Z,36.65
2022-08-17T20:59:25.537Z,35.58
2022-08-17T21:02:13.833Z,34.95
2022-08-17T21:04:52.876Z,35.85
2022-08-17T21:07:25.145Z,33.13
2022-08-17T21:09:52.279Z,35.45
2022-08-17T21:12:40.356Z,31.15
2022-08-17T21:15:17.102Z,35.35
2022-08-17T21:17:49.286Z,33.80
2022-08-17T21:20:36.624Z,35.38
2022-08-17T21:23:06.749Z,34.83
2022-08-17T21:25:49.014Z,34.05
2022-08-17T21:28:30.139Z,34.63
2022-08-17T21:31:08.269Z,35.50
2022-08-17T21:33:36.331Z,41.20
2022-08-17T21:36:12.308Z,37.10
2022-08-17T21:38:39.544Z,34.85
2022-08-17T21:41:06.625Z,39.20
2022-08-17T21:43:35.580Z,37.92
2022-08-17T21:46:05.006Z,38.58
2022-08-17T21:48:41.288Z,42.25
2022-08-17T21:51:10.233Z,40.22
2022-08-17T21:53:48.921Z,38.90
2022-08-17T21:56:24.630Z,40.40
2022-08-17T21:58:58.151Z,43.40
2022-08-17T22:01:26.907Z,42.38
2022-08-17T22:03:55.682Z,45.72
2022-08-17T22:06:28.278Z,44.67
2022-08-17T22:09:16.216Z,40.85
2022-08-17T22:11:52.555Z,42.80
2022-08-17T22:14:25.612Z,42.58
2022-08-17T22:17:14.567Z,41.10
2022-08-17T22:19:43.454Z,39.97
2022-08-17T22:22:21.648Z,37.90
2022-08-17T22:24:56.853Z,39.53
2022-08-17T22:27:45.654Z,40.08
2022-08-17T22:30:27.459Z,39.13
2022-08-17T22:32:55.339Z,39.95
2022-08-17T22:35:36.083Z,39.83
2022-08-17T22:38:18.540Z,40.28
2022-08-17T22:40:56.410Z,43.13
2022-08-17T22:43:26.224Z,45.13
2022-08-17T22:45:55.235Z,42.60
2022-08-17T22:48:27.210Z,44.38
2022-08-17T22:51:04.137Z,48.50
2022-08-17T22:54:04.780Z,47.45
2022-08-17T22:56:50.824Z,45.85
2022-08-17T22:59:37.946Z,45.35
2022-08-17T23:02:13.863Z,44.08
2022-08-17T23:04:43.905Z,44.55
2022-08-17T23:07:10.953Z,43.35
2022-08-17T23:09:38.163Z,44.47
2022-08-17T23:12:08.187Z,45.05
2022-08-17T23:14:37.900Z,42.22
2022-08-17T23:17:06.242Z,42.97
2022-08-17T23:19:33.833Z,41.13
2022-08-17T23:22:02.608Z,41.17
2022-08-17T23:24:30.591Z,39.30
2022-08-17T23:26:58.922Z,39.20
2022-08-17T23:29:29.110Z,40.10
2022-08-17T23:31:59.552Z,36.20
2022-08-17T23:34:27.959Z,38.13
2022-08-17T23:36:55.771Z,37.35
2022-08-17T23:39:24.716Z,38.88
2022-08-17T23:41:54.629Z,39.95
2022-08-17T23:44:25.234Z,42.03
2022-08-17T23:46:53.107Z,39.55
2022-08-17T23:49:20.618Z,40.30
2022-08-17T23:51:48.462Z,43.63
2022-08-17T23:54:33.505Z,40.95
2022-08-17T23:57:04.884Z,37.85
2022-08-17T23:59:33.745Z,41.90
